Portada
METAR-TAF:

METAR-TAF

Aeropuertos :

Zanjan, Irán

latitud: 36-41N, longitud: 048-29E, altitud: 1663 m

Observación

El informe se hizo hace 7 horas y 55 minutos, a las 15:00 UTC
Viento 10 kt del sur
Temperatura 30°C
Humedad 15%
Presión 1018 hPa
Visibilidad 10 km o más
Escasas nubes a una altura de 3500 ft

METAR: OITZ 281500Z 19010KT 9999 FEW035 30/01 Q1018

Hora: 03:25 (22:55 UTC)


TAF: falta

Observaciones y pronósticos meteorológicos de más de 4000 aeropuertos (mensajes METAR y TAF).

Los puntos amarillos y rojos representan las estaciones disponibles.

Ponga el ratón en el punto deseado para ver el nombre de la estación.

Haga clic para ver las observaciones y los pronósticos meteorológicos.

Para cambiar el mapa : haga clic en los botones verdes con una cruz de color negro para hacer un zoom, en el botón verde con un guión para alejar o en las flechas verdes para mapas adyacentes.


METAR-TAF: